createdAt,value
2017-12-31T00:00:08.812Z,14.57
2017-12-31T00:00:49.339Z,14.58
2017-12-31T00:01:29.940Z,14.58
2017-12-31T00:02:10.501Z,14.6
2017-12-31T00:02:51.064Z,14.61
2017-12-31T00:03:31.603Z,14.55
2017-12-31T00:04:12.172Z,14.45
2017-12-31T00:04:52.733Z,14.46
2017-12-31T00:05:33.262Z,14.51
2017-12-31T00:06:13.808Z,14.51
2017-12-31T00:06:54.384Z,14.61
2017-12-31T00:07:34.960Z,14.61
2017-12-31T00:08:15.494Z,14.52
2017-12-31T00:08:56.056Z,14.61
2017-12-31T00:09:36.591Z,14.58
2017-12-31T00:10:17.143Z,14.6
2017-12-31T00:10:57.692Z,14.61
2017-12-31T00:11:38.235Z,14.62
2017-12-31T00:12:18.754Z,14.61
2017-12-31T00:12:59.334Z,14.62
2017-12-31T00:13:39.856Z,14.58
2017-12-31T00:14:20.416Z,14.64
2017-12-31T00:15:00.965Z,14.52
2017-12-31T00:15:41.531Z,14.61
2017-12-31T00:16:22.082Z,14.58
2017-12-31T00:17:02.638Z,14.58
2017-12-31T00:17:43.176Z,14.7
2017-12-31T00:18:23.721Z,14.58
2017-12-31T00:19:04.277Z,14.64
2017-12-31T00:19:44.834Z,14.5
2017-12-31T00:20:25.393Z,14.52
2017-12-31T00:21:05.905Z,14.45
2017-12-31T00:21:46.467Z,14.57
2017-12-31T00:22:27.039Z,14.54
2017-12-31T00:23:07.588Z,14.57
2017-12-31T00:23:48.170Z,14.55
2017-12-31T00:24:28.723Z,14.51
2017-12-31T00:25:09.254Z,14.55
2017-12-31T00:25:49.803Z,14.52
2017-12-31T00:26:30.357Z,14.47
2017-12-31T00:27:10.893Z,14.45
2017-12-31T00:27:51.446Z,14.5
2017-12-31T00:28:32.018Z,14.54
2017-12-31T00:29:12.559Z,14.5
2017-12-31T00:29:53.115Z,14.5
2017-12-31T00:30:33.687Z,14.42
2017-12-31T00:31:14.236Z,14.61
2017-12-31T00:31:54.761Z,14.54
2017-12-31T00:32:35.316Z,14.47
2017-12-31T00:33:15.862Z,14.57
2017-12-31T00:33:56.406Z,14.52
2017-12-31T00:34:36.982Z,14.43
2017-12-31T00:35:17.535Z,14.5
2017-12-31T00:35:58.091Z,14.5
2017-12-31T00:36:38.731Z,14.55
2017-12-31T00:37:19.190Z,14.45
2017-12-31T00:37:59.718Z,14.6
2017-12-31T00:38:40.246Z,14.61
2017-12-31T00:39:20.807Z,14.64
2017-12-31T00:40:01.405Z,14.58
2017-12-31T00:40:41.943Z,14.64
2017-12-31T00:41:22.518Z,14.62
2017-12-31T00:42:03.062Z,14.61
2017-12-31T00:42:43.593Z,14.54
2017-12-31T00:43:24.143Z,14.58
2017-12-31T00:44:04.688Z,14.52
2017-12-31T00:44:45.257Z,14.58
2017-12-31T00:45:25.818Z,14.65
2017-12-31T00:46:06.354Z,14.7
2017-12-31T00:46:46.953Z,14.51
2017-12-31T00:47:27.482Z,14.64
2017-12-31T00:48:08.048Z,14.65
2017-12-31T00:48:48.612Z,14.64
2017-12-31T00:49:29.151Z,14.69
2017-12-31T00:50:09.677Z,14.61
2017-12-31T00:50:50.227Z,14.7
2017-12-31T00:51:30.805Z,14.69
2017-12-31T00:52:11.384Z,14.73
2017-12-31T00:52:51.932Z,14.61
2017-12-31T00:53:32.444Z,14.7
2017-12-31T00:54:13.021Z,14.62
2017-12-31T00:54:53.597Z,14.64
2017-12-31T00:55:34.154Z,14.7
2017-12-31T00:56:14.659Z,14.57
2017-12-31T00:56:55.224Z,14.61
2017-12-31T00:57:35.781Z,14.54
2017-12-31T00:58:16.329Z,14.62
2017-12-31T00:58:56.842Z,14.57
2017-12-31T00:59:37.425Z,14.57
2017-12-31T01:00:18.006Z,14.58
2017-12-31T01:00:58.544Z,14.6
2017-12-31T01:01:39.082Z,14.62
2017-12-31T01:02:19.637Z,14.61
2017-12-31T01:03:00.143Z,14.69
2017-12-31T01:03:40.693Z,14.58
2017-12-31T01:04:21.270Z,14.58
2017-12-31T01:05:01.802Z,14.65
2017-12-31T01:05:42.349Z,14.64
2017-12-31T01:06:22.961Z,14.68
2017-12-31T01:07:03.486Z,14.69
2017-12-31T01:07:44.026Z,14.64
2017-12-31T01:08:24.608Z,14.72
2017-12-31T01:09:05.181Z,14.64
2017-12-31T01:09:45.718Z,14.72
2017-12-31T01:10:26.255Z,14.64
2017-12-31T01:11:06.819Z,14.62
2017-12-31T01:11:47.362Z,14.61
2017-12-31T01:12:27.923Z,14.61
2017-12-31T01:13:08.451Z,14.55
2017-12-31T01:13:49.021Z,14.65
2017-12-31T01:14:29.558Z,14.61
2017-12-31T01:15:10.130Z,14.64
2017-12-31T01:15:50.670Z,14.61
2017-12-31T01:16:31.206Z,14.62
2017-12-31T01:17:11.762Z,14.55
2017-12-31T01:17:52.306Z,14.6
2017-12-31T01:18:32.833Z,14.58
2017-12-31T01:19:13.411Z,14.64
2017-12-31T01:19:53.984Z,14.6
2017-12-31T01:20:34.519Z,14.57
2017-12-31T01:21:15.057Z,14.57
2017-12-31T01:21:55.617Z,14.47
2017-12-31T01:22:36.175Z,14.51
2017-12-31T01:23:16.716Z,14.52
2017-12-31T01:23:57.284Z,14.51
2017-12-31T01:24:37.837Z,14.55
2017-12-31T01:25:18.384Z,14.6
2017-12-31T01:25:58.943Z,14.45
2017-12-31T01:26:39.495Z,14.5
2017-12-31T01:27:20.043Z,14.5
2017-12-31T01:28:00.575Z,14.54
2017-12-31T01:28:41.130Z,14.61
2017-12-31T01:29:21.650Z,14.51
2017-12-31T01:30:02.183Z,14.52
2017-12-31T01:30:42.749Z,14.54
2017-12-31T01:31:23.308Z,14.57
2017-12-31T01:32:03.864Z,14.68
2017-12-31T01:32:44.438Z,14.6
2017-12-31T01:33:24.974Z,14.58
2017-12-31T01:34:05.540Z,14.61
2017-12-31T01:34:46.073Z,14.68
2017-12-31T01:35:26.608Z,14.68
2017-12-31T01:36:07.172Z,14.69
2017-12-31T01:36:47.706Z,14.64
2017-12-31T01:37:28.270Z,14.78
2017-12-31T01:38:08.813Z,14.65
2017-12-31T01:38:49.398Z,14.72
2017-12-31T01:39:29.928Z,14.58
2017-12-31T01:40:10.469Z,14.61
2017-12-31T01:40:51.016Z,14.73
2017-12-31T01:41:31.567Z,14.7
2017-12-31T01:42:12.126Z,14.65
2017-12-31T01:42:52.685Z,14.72
2017-12-31T01:43:33.226Z,14.65
2017-12-31T01:44:13.772Z,14.68
2017-12-31T01:44:54.365Z,14.65
2017-12-31T01:45:34.917Z,14.69
2017-12-31T01:46:15.425Z,14.7
2017-12-31T01:46:55.995Z,14.75
2017-12-31T01:47:37.340Z,14.78
2017-12-31T01:48:17.066Z,14.78
2017-12-31T01:48:57.649Z,14.73
2017-12-31T01:49:38.188Z,14.81
2017-12-31T01:50:18.775Z,14.77
2017-12-31T01:50:59.265Z,14.8
2017-12-31T01:51:39.807Z,14.8
2017-12-31T01:52:20.639Z,14.81
2017-12-31T01:53:01.278Z,14.84
2017-12-31T01:53:41.837Z,14.75
2017-12-31T01:54:22.340Z,14.81
2017-12-31T01:55:03.116Z,14.75
2017-12-31T01:55:43.844Z,14.81
2017-12-31T01:56:24.451Z,14.77
2017-12-31T01:57:05.080Z,14.8
2017-12-31T01:57:45.567Z,14.73
2017-12-31T01:58:26.330Z,14.78
2017-12-31T01:59:06.939Z,14.8
2017-12-31T01:59:47.469Z,14.81
2017-12-31T02:00:28.007Z,14.77
2017-12-31T02:01:08.653Z,14.72
2017-12-31T02:01:49.095Z,14.78
2017-12-31T02:02:29.692Z,14.78
2017-12-31T02:03:10.325Z,14.78
2017-12-31T02:03:50.803Z,14.77
2017-12-31T02:04:31.499Z,14.78
2017-12-31T02:05:11.892Z,14.83
2017-12-31T02:05:52.444Z,14.78
2017-12-31T02:06:32.990Z,14.88
2017-12-31T02:07:13.595Z,14.75
2017-12-31T02:07:54.012Z,14.77
2017-12-31T02:08:34.559Z,14.75
2017-12-31T02:09:15.132Z,14.81
2017-12-31T02:09:55.664Z,14.92
2017-12-31T02:10:36.224Z,14.86
2017-12-31T02:11:16.790Z,14.86
2017-12-31T02:11:57.316Z,14.83
2017-12-31T02:12:37.872Z,14.7
2017-12-31T02:13:18.403Z,14.89
2017-12-31T02:13:58.930Z,14.81
2017-12-31T02:14:39.472Z,14.8
2017-12-31T02:15:20.039Z,14.73
2017-12-31T02:16:00.595Z,14.81
2017-12-31T02:16:41.121Z,14.83
2017-12-31T02:17:21.658Z,14.8
2017-12-31T02:18:02.269Z,14.81
2017-12-31T02:18:42.785Z,14.8
2017-12-31T02:19:23.321Z,14.86
2017-12-31T02:20:03.893Z,14.86
2017-12-31T02:20:44.423Z,14.83
2017-12-31T02:21:24.995Z,14.8
2017-12-31T02:22:05.532Z,14.78
2017-12-31T02:22:46.097Z,14.84
2017-12-31T02:23:26.644Z,14.77
2017-12-31T02:24:07.195Z,14.81
2017-12-31T02:24:47.755Z,14.77
2017-12-31T02:25:28.284Z,14.77
2017-12-31T02:26:08.828Z,14.72
2017-12-31T02:26:49.372Z,14.72
2017-12-31T02:27:29.925Z,14.81
2017-12-31T02:28:10.490Z,14.72
2017-12-31T02:28:51.024Z,14.77
2017-12-31T02:29:31.589Z,14.68
2017-12-31T02:30:12.168Z,14.69
2017-12-31T02:30:52.712Z,14.62
2017-12-31T02:31:33.362Z,14.58
2017-12-31T02:32:13.908Z,14.69
2017-12-31T02:32:54.568Z,14.61
2017-12-31T02:33:35.431Z,14.61
2017-12-31T02:34:15.963Z,14.64
2017-12-31T02:34:56.717Z,14.61
2017-12-31T02:35:37.396Z,14.69
2017-12-31T02:36:17.861Z,14.75
2017-12-31T02:36:58.463Z,14.6
2017-12-31T02:37:39.013Z,14.7
2017-12-31T02:38:19.539Z,14.61
2017-12-31T02:39:00.132Z,14.69
2017-12-31T02:39:40.634Z,14.64
2017-12-31T02:40:21.201Z,14.68
2017-12-31T02:41:01.769Z,14.64
2017-12-31T02:41:42.367Z,14.65
2017-12-31T02:42:22.855Z,14.7
2017-12-31T02:43:03.381Z,14.65
2017-12-31T02:43:43.926Z,14.65
2017-12-31T02:44:24.466Z,14.65
2017-12-31T02:45:04.997Z,14.68
2017-12-31T02:45:45.554Z,14.72
2017-12-31T02:46:26.153Z,14.69
2017-12-31T02:47:06.692Z,14.73
2017-12-31T02:47:47.258Z,14.77
2017-12-31T02:48:27.796Z,14.65
2017-12-31T02:49:08.358Z,14.75
2017-12-31T02:49:48.901Z,14.64
2017-12-31T02:50:29.962Z,14.75
2017-12-31T02:51:10.542Z,14.7
2017-12-31T02:51:51.169Z,14.58
2017-12-31T02:52:31.721Z,14.61
2017-12-31T02:53:12.276Z,14.62
2017-12-31T02:53:52.805Z,14.61
2017-12-31T02:54:33.364Z,14.65
2017-12-31T02:55:13.939Z,14.6
2017-12-31T02:55:54.495Z,14.64
2017-12-31T02:56:35.037Z,14.62
2017-12-31T02:57:15.588Z,14.6
2017-12-31T02:57:56.155Z,14.57
2017-12-31T02:58:36.669Z,14.61
2017-12-31T02:59:17.211Z,14.64
2017-12-31T02:59:57.811Z,14.62
2017-12-31T03:00:38.258Z,14.68
2017-12-31T03:01:18.804Z,14.58
2017-12-31T03:01:59.389Z,14.55
2017-12-31T03:02:39.933Z,14.57
2017-12-31T03:03:20.505Z,14.58
2017-12-31T03:04:01.081Z,14.57
2017-12-31T03:04:41.665Z,14.58
2017-12-31T03:05:22.219Z,14.62
2017-12-31T03:06:02.743Z,14.61
2017-12-31T03:06:43.326Z,14.58
2017-12-31T03:07:23.880Z,14.65
2017-12-31T03:08:04.417Z,14.68
2017-12-31T03:08:44.953Z,14.6
2017-12-31T03:09:25.508Z,14.61
2017-12-31T03:10:06.061Z,14.61
2017-12-31T03:10:46.615Z,14.55
2017-12-31T03:11:27.238Z,14.58
2017-12-31T03:12:07.693Z,14.51
2017-12-31T03:12:48.190Z,14.58
2017-12-31T03:13:28.750Z,14.61
2017-12-31T03:14:09.256Z,14.64
2017-12-31T03:14:49.828Z,14.64
2017-12-31T03:15:30.347Z,14.68
2017-12-31T03:16:10.928Z,14.65
2017-12-31T03:16:51.472Z,14.52
2017-12-31T03:17:32.025Z,14.68
2017-12-31T03:18:12.579Z,14.57
2017-12-31T03:18:53.129Z,14.6
2017-12-31T03:19:33.642Z,14.65
2017-12-31T03:20:14.196Z,14.65
2017-12-31T03:20:54.711Z,14.68
2017-12-31T03:21:36.069Z,14.62
2017-12-31T03:22:16.605Z,14.58
2017-12-31T03:22:57.158Z,14.6
2017-12-31T03:23:37.691Z,14.52
2017-12-31T03:24:18.241Z,14.4
2017-12-31T03:24:58.800Z,14.45
2017-12-31T03:25:39.365Z,14.54
2017-12-31T03:26:19.900Z,14.51
2017-12-31T03:27:00.468Z,14.55
2017-12-31T03:27:41.016Z,14.33
2017-12-31T03:28:21.565Z,14.33
2017-12-31T03:29:02.112Z,14.39
2017-12-31T03:29:42.675Z,14.45
2017-12-31T03:30:23.214Z,14.36
2017-12-31T03:31:03.765Z,14.39
2017-12-31T03:31:44.344Z,14.4
2017-12-31T03:32:24.854Z,14.35
2017-12-31T03:33:05.397Z,14.33
2017-12-31T03:33:45.957Z,14.4
2017-12-31T03:34:26.525Z,14.36
2017-12-31T03:35:07.050Z,14.42
2017-12-31T03:35:47.573Z,14.37
2017-12-31T03:36:28.129Z,14.39
2017-12-31T03:37:08.699Z,14.36
2017-12-31T03:37:49.244Z,14.37
2017-12-31T03:38:29.785Z,14.39
2017-12-31T03:39:10.374Z,14.42
2017-12-31T03:39:50.873Z,14.47
2017-12-31T03:40:31.430Z,14.36
2017-12-31T03:41:11.983Z,14.42
2017-12-31T03:41:52.532Z,14.35
2017-12-31T03:42:33.087Z,14.37
2017-12-31T03:43:13.652Z,14.27
2017-12-31T03:43:54.215Z,14.36
2017-12-31T03:44:34.734Z,14.27
2017-12-31T03:45:15.276Z,14.39
2017-12-31T03:45:55.837Z,14.27
2017-12-31T03:46:36.406Z,14.35
2017-12-31T03:47:16.972Z,14.27
2017-12-31T03:47:57.548Z,14.24
2017-12-31T03:48:38.113Z,14.36
2017-12-31T03:49:18.670Z,14.28
2017-12-31T03:49:59.200Z,14.27
2017-12-31T03:50:39.757Z,14.25
2017-12-31T03:51:20.297Z,14.24
2017-12-31T03:52:00.853Z,14.37
2017-12-31T03:52:41.404Z,14.33
2017-12-31T03:53:21.959Z,14.22
2017-12-31T03:54:02.497Z,14.33
2017-12-31T03:54:43.064Z,14.24
2017-12-31T03:55:23.632Z,14.22
2017-12-31T03:56:04.234Z,14.29
2017-12-31T03:56:44.756Z,14.35
2017-12-31T03:57:25.312Z,14.28
2017-12-31T03:58:05.861Z,14.25
2017-12-31T03:58:46.422Z,14.25
2017-12-31T03:59:26.976Z,14.25
2017-12-31T04:00:07.533Z,14.24
2017-12-31T04:00:48.089Z,14.24
2017-12-31T04:01:28.653Z,14.22
2017-12-31T04:02:09.183Z,14.27
2017-12-31T04:02:49.731Z,14.25
2017-12-31T04:03:30.276Z,14.27
2017-12-31T04:04:10.838Z,14.32
2017-12-31T04:04:51.369Z,14.32
2017-12-31T04:05:31.921Z,14.29
2017-12-31T04:06:12.490Z,14.25
2017-12-31T04:06:53.021Z,14.24
2017-12-31T04:07:33.558Z,14.35
2017-12-31T04:08:14.124Z,14.24
2017-12-31T04:08:54.643Z,14.22
2017-12-31T04:09:35.216Z,14.36
2017-12-31T04:10:15.790Z,14.42
2017-12-31T04:10:56.348Z,14.33
2017-12-31T04:11:36.883Z,14.32
2017-12-31T04:12:17.413Z,14.29
2017-12-31T04:12:57.959Z,14.35
2017-12-31T04:13:38.502Z,14.45
2017-12-31T04:14:19.057Z,14.52
2017-12-31T04:14:59.612Z,14.52
2017-12-31T04:15:40.164Z,14.5
2017-12-31T04:16:20.726Z,14.55
2017-12-31T04:17:01.290Z,14.45
2017-12-31T04:17:41.878Z,14.46
2017-12-31T04:18:22.423Z,14.47
2017-12-31T04:19:02.876Z,14.5
2017-12-31T04:19:43.477Z,14.42
2017-12-31T04:20:24.025Z,14.46
2017-12-31T04:21:04.574Z,14.46
2017-12-31T04:21:45.121Z,14.42
2017-12-31T04:22:25.762Z,14.45
2017-12-31T04:23:06.285Z,14.46
2017-12-31T04:23:46.817Z,14.51
2017-12-31T04:24:27.361Z,14.46
2017-12-31T04:25:07.871Z,14.45
2017-12-31T04:25:48.441Z,14.6
2017-12-31T04:26:29.020Z,14.57
2017-12-31T04:27:09.507Z,14.57
2017-12-31T04:27:50.089Z,14.61
2017-12-31T04:28:30.612Z,14.5
2017-12-31T04:29:11.168Z,14.55
2017-12-31T04:29:51.744Z,14.5
2017-12-31T04:30:32.246Z,14.51
2017-12-31T04:31:12.791Z,14.58
2017-12-31T04:31:53.320Z,14.46
2017-12-31T04:32:33.862Z,14.51
2017-12-31T04:33:14.428Z,14.55
2017-12-31T04:33:54.966Z,14.46
2017-12-31T04:34:35.532Z,14.5
2017-12-31T04:35:16.064Z,14.5
2017-12-31T04:35:56.618Z,14.5
2017-12-31T04:36:37.194Z,14.46
2017-12-31T04:37:17.736Z,14.5
2017-12-31T04:37:58.301Z,14.4
2017-12-31T04:38:38.841Z,14.4
2017-12-31T04:39:19.398Z,14.37
2017-12-31T04:39:59.947Z,14.33
2017-12-31T04:40:40.504Z,14.42
2017-12-31T04:41:21.062Z,14.37
2017-12-31T04:42:01.616Z,14.43
2017-12-31T04:42:42.163Z,14.47
2017-12-31T04:43:22.737Z,14.46
2017-12-31T04:44:03.305Z,14.37
2017-12-31T04:44:43.855Z,14.42
2017-12-31T04:45:24.364Z,14.5
2017-12-31T04:46:04.932Z,14.5
2017-12-31T04:46:45.500Z,14.51
2017-12-31T04:47:26.040Z,14.55
2017-12-31T04:48:06.601Z,14.46
2017-12-31T04:48:47.165Z,14.51
2017-12-31T04:49:27.707Z,14.5
2017-12-31T04:50:08.186Z,14.51
2017-12-31T04:50:48.780Z,14.62
2017-12-31T04:51:29.333Z,14.52
2017-12-31T04:52:09.877Z,14.61
2017-12-31T04:52:50.429Z,14.57
2017-12-31T04:53:30.927Z,14.57
2017-12-31T04:54:11.498Z,14.58
2017-12-31T04:54:52.061Z,14.62
2017-12-31T04:55:32.563Z,14.6
2017-12-31T04:56:13.106Z,14.58
2017-12-31T04:56:53.693Z,14.58
2017-12-31T04:57:34.308Z,14.62
2017-12-31T04:58:14.823Z,14.65
2017-12-31T04:58:55.366Z,14.7
2017-12-31T04:59:35.914Z,14.7
2017-12-31T05:00:16.447Z,14.65
2017-12-31T05:00:57.005Z,14.64
2017-12-31T05:01:37.493Z,14.65
2017-12-31T05:02:18.011Z,14.58
2017-12-31T05:02:58.684Z,14.62
2017-12-31T05:03:39.130Z,14.54
2017-12-31T05:04:19.723Z,14.61
2017-12-31T05:05:00.203Z,14.55
2017-12-31T05:05:40.754Z,14.62
2017-12-31T05:06:21.908Z,14.57
2017-12-31T05:07:01.852Z,14.5
2017-12-31T05:07:42.405Z,14.64
2017-12-31T05:08:22.952Z,14.61
2017-12-31T05:09:03.585Z,14.61
2017-12-31T05:09:44.061Z,14.54
2017-12-31T05:10:24.596Z,14.64
2017-12-31T05:11:05.156Z,14.6
2017-12-31T05:11:45.721Z,14.62
2017-12-31T05:12:26.280Z,14.62
2017-12-31T05:13:06.815Z,14.64
2017-12-31T05:13:47.399Z,14.61
2017-12-31T05:14:27.914Z,14.6
2017-12-31T05:15:08.442Z,14.58
2017-12-31T05:15:49.011Z,14.65
2017-12-31T05:16:29.567Z,14.68
2017-12-31T05:17:10.113Z,14.61
2017-12-31T05:17:50.674Z,14.58
2017-12-31T05:18:31.235Z,14.64
2017-12-31T05:19:11.788Z,14.62
2017-12-31T05:19:52.325Z,14.64
2017-12-31T05:20:32.865Z,14.62
2017-12-31T05:21:13.416Z,14.69
2017-12-31T05:21:53.957Z,14.57
2017-12-31T05:22:34.533Z,14.47
2017-12-31T05:23:15.096Z,14.61
2017-12-31T05:23:55.610Z,14.61
2017-12-31T05:24:36.210Z,14.54
2017-12-31T05:25:16.833Z,14.58
2017-12-31T05:25:57.395Z,14.57
2017-12-31T05:26:38.002Z,14.55
2017-12-31T05:27:18.562Z,14.5
2017-12-31T05:27:59.081Z,14.6
2017-12-31T05:28:39.600Z,14.52
2017-12-31T05:29:20.141Z,14.51
2017-12-31T05:30:00.736Z,14.46
2017-12-31T05:30:41.256Z,14.46
2017-12-31T05:31:21.816Z,14.5
2017-12-31T05:32:02.342Z,14.51
2017-12-31T05:32:42.862Z,14.45
2017-12-31T05:33:23.425Z,14.54
2017-12-31T05:34:03.915Z,14.46
2017-12-31T05:34:44.510Z,14.47
2017-12-31T05:35:25.099Z,14.51
2017-12-31T05:36:05.738Z,14.5
2017-12-31T05:36:46.357Z,14.54
2017-12-31T05:37:26.969Z,14.5
2017-12-31T05:38:07.495Z,14.45
2017-12-31T05:38:48.011Z,14.45
2017-12-31T05:39:28.578Z,14.47
2017-12-31T05:40:09.100Z,14.5
2017-12-31T05:40:49.648Z,14.54
2017-12-31T05:41:30.184Z,14.46
2017-12-31T05:42:10.729Z,14.54
2017-12-31T05:42:51.293Z,14.5
2017-12-31T05:43:31.840Z,14.47
2017-12-31T05:44:12.392Z,14.55
2017-12-31T05:44:52.937Z,14.52
2017-12-31T05:45:33.463Z,14.46
2017-12-31T05:46:14.012Z,14.39
2017-12-31T05:46:55.422Z,14.35
2017-12-31T05:47:36.025Z,14.37
2017-12-31T05:48:16.581Z,14.39
2017-12-31T05:48:57.134Z,14.32
2017-12-31T05:49:37.692Z,14.43
2017-12-31T05:50:18.263Z,14.35
2017-12-31T05:50:58.811Z,14.33
2017-12-31T05:51:39.347Z,14.37
2017-12-31T05:52:19.900Z,14.42
2017-12-31T05:53:00.440Z,14.37
2017-12-31T05:53:40.981Z,14.36
2017-12-31T05:54:21.541Z,14.36
2017-12-31T05:55:02.080Z,14.22
2017-12-31T05:55:42.631Z,14.36
2017-12-31T05:56:23.207Z,14.33
2017-12-31T05:57:03.755Z,14.22
2017-12-31T05:57:44.317Z,14.24
2017-12-31T05:58:24.855Z,14.27
2017-12-31T05:59:05.414Z,14.25
2017-12-31T05:59:45.960Z,14.27
2017-12-31T06:00:26.490Z,14.35
2017-12-31T06:01:07.031Z,14.32
2017-12-31T06:01:47.657Z,14.27
2017-12-31T06:02:28.141Z,14.27
2017-12-31T06:03:08.693Z,14.22
2017-12-31T06:03:49.257Z,14.28
2017-12-31T06:04:29.812Z,14.25
2017-12-31T06:05:10.371Z,14.29
2017-12-31T06:05:50.913Z,14.29
2017-12-31T06:06:31.474Z,14.29
2017-12-31T06:07:12.015Z,14.28
2017-12-31T06:07:52.537Z,14.28
2017-12-31T06:08:33.118Z,14.29
2017-12-31T06:09:13.651Z,14.33
2017-12-31T06:09:54.199Z,14.28
2017-12-31T06:10:34.748Z,14.25
2017-12-31T06:11:15.303Z,14.24
2017-12-31T06:11:55.873Z,14.32
2017-12-31T06:12:36.436Z,14.29
2017-12-31T06:13:16.966Z,14.33
2017-12-31T06:13:57.525Z,14.28
2017-12-31T06:14:38.065Z,14.28
2017-12-31T06:15:18.618Z,14.32
2017-12-31T06:15:59.167Z,14.25
2017-12-31T06:16:39.717Z,14.22
2017-12-31T06:17:20.269Z,14.22
2017-12-31T06:18:00.822Z,14.27
2017-12-31T06:18:41.373Z,14.25
2017-12-31T06:19:21.913Z,14.36
2017-12-31T06:20:02.460Z,14.24
2017-12-31T06:20:43.001Z,14.25
2017-12-31T06:21:23.553Z,14.18
2017-12-31T06:22:04.114Z,14.15
2017-12-31T06:22:44.652Z,14.15
2017-12-31T06:23:25.220Z,14.18
2017-12-31T06:24:05.761Z,14.22
2017-12-31T06:24:46.320Z,14.21
2017-12-31T06:25:26.859Z,14.18
2017-12-31T06:26:07.408Z,14.12
2017-12-31T06:26:47.959Z,14.18
2017-12-31T06:27:28.512Z,14.1
2017-12-31T06:28:09.066Z,14.1
2017-12-31T06:28:49.641Z,14.1
2017-12-31T06:29:30.181Z,14.15
2017-12-31T06:30:10.730Z,14.14
2017-12-31T06:30:51.262Z,14.1
2017-12-31T06:31:31.822Z,14.06
2017-12-31T06:32:12.347Z,14.15
2017-12-31T06:32:52.904Z,14.07
2017-12-31T06:33:33.481Z,14.09
2017-12-31T06:34:14.028Z,14.09
2017-12-31T06:34:54.594Z,14.04
2017-12-31T06:35:35.130Z,14.1
2017-12-31T06:36:15.675Z,14.15
2017-12-31T06:36:56.228Z,14.07
2017-12-31T06:37:36.809Z,13.99
2017-12-31T06:38:17.339Z,13.99
2017-12-31T06:38:57.878Z,13.97
2017-12-31T06:39:38.426Z,14.06
2017-12-31T06:40:19.044Z,14.07
2017-12-31T06:40:59.547Z,13.99
2017-12-31T06:41:40.089Z,14
2017-12-31T06:42:20.641Z,13.95
2017-12-31T06:43:01.189Z,13.97
2017-12-31T06:43:41.729Z,14.03
2017-12-31T06:44:22.266Z,14.06
2017-12-31T06:45:02.844Z,14
2017-12-31T06:45:43.386Z,14.06
2017-12-31T06:46:23.925Z,14.04
2017-12-31T06:47:04.456Z,14.09
2017-12-31T06:47:45.004Z,14.09
2017-12-31T06:48:25.556Z,14.09
2017-12-31T06:49:06.117Z,14.14
2017-12-31T06:49:46.676Z,14.14
2017-12-31T06:50:27.250Z,14.17
2017-12-31T06:51:07.795Z,14.15
2017-12-31T06:51:48.378Z,14.18
2017-12-31T06:52:28.939Z,14.2
2017-12-31T06:53:09.479Z,14.27
2017-12-31T06:53:50.041Z,14.32
2017-12-31T06:54:30.591Z,14.32
2017-12-31T06:55:11.137Z,14.25
2017-12-31T06:55:51.677Z,14.28
2017-12-31T06:56:32.225Z,14.24
2017-12-31T06:57:12.769Z,14.33
2017-12-31T06:57:53.323Z,14.29
2017-12-31T06:58:33.865Z,14.28
2017-12-31T06:59:14.417Z,14.33
2017-12-31T06:59:54.969Z,14.27
2017-12-31T07:00:35.534Z,14.27
2017-12-31T07:01:16.104Z,14.37
2017-12-31T07:01:56.661Z,14.29
2017-12-31T07:02:37.202Z,14.28
2017-12-31T07:03:17.756Z,14.28
2017-12-31T07:03:58.292Z,14.27
2017-12-31T07:04:38.850Z,14.22
2017-12-31T07:05:19.394Z,14.27
2017-12-31T07:05:59.937Z,14.25
2017-12-31T07:06:40.490Z,14.27
2017-12-31T07:07:21.047Z,14.36
2017-12-31T07:08:01.635Z,14.32
2017-12-31T07:08:42.187Z,14.28
2017-12-31T07:09:22.721Z,14.25
2017-12-31T07:10:03.279Z,14.25
2017-12-31T07:10:43.832Z,14.24
2017-12-31T07:11:24.399Z,14.27
2017-12-31T07:12:04.934Z,14.27
2017-12-31T07:12:45.501Z,14.37
2017-12-31T07:13:26.048Z,14.29
2017-12-31T07:14:06.595Z,14.21
2017-12-31T07:14:47.130Z,14.27
2017-12-31T07:15:27.669Z,14.33
2017-12-31T07:16:08.211Z,14.32
2017-12-31T07:16:48.756Z,14.25
2017-12-31T07:17:29.317Z,14.29
2017-12-31T07:18:09.875Z,14.29
2017-12-31T07:18:50.448Z,14.24
2017-12-31T07:19:31.004Z,14.29
2017-12-31T07:20:11.525Z,14.25
2017-12-31T07:20:52.087Z,14.24
2017-12-31T07:21:32.627Z,14.29
2017-12-31T07:22:13.191Z,14.28
2017-12-31T07:22:53.751Z,14.25
2017-12-31T07:23:34.314Z,14.29
2017-12-31T07:24:14.876Z,14.24
2017-12-31T07:24:55.424Z,14.24
2017-12-31T07:25:35.985Z,14.29
2017-12-31T07:26:16.537Z,14.35
2017-12-31T07:26:57.076Z,14.28
2017-12-31T07:27:37.631Z,14.24
2017-12-31T07:28:18.177Z,14.35
2017-12-31T07:28:58.738Z,14.42
2017-12-31T07:29:39.291Z,14.35
2017-12-31T07:30:19.846Z,14.37
2017-12-31T07:31:00.386Z,14.39
2017-12-31T07:31:40.930Z,14.39
2017-12-31T07:32:21.481Z,14.36
2017-12-31T07:33:02.032Z,14.36
2017-12-31T07:33:42.562Z,14.28
2017-12-31T07:34:23.103Z,14.27
2017-12-31T07:35:03.674Z,14.24
2017-12-31T07:35:44.192Z,14.37
2017-12-31T07:36:24.744Z,14.25
2017-12-31T07:37:06.036Z,14.22
2017-12-31T07:37:46.605Z,14.22
2017-12-31T07:38:27.162Z,14.25
2017-12-31T07:39:07.724Z,14.27
2017-12-31T07:39:48.254Z,14.27
2017-12-31T07:40:28.952Z,14.36
2017-12-31T07:41:09.508Z,14.36
2017-12-31T07:41:50.070Z,14.37
2017-12-31T07:42:30.623Z,14.43
2017-12-31T07:43:11.187Z,14.4
2017-12-31T07:43:51.751Z,14.36
2017-12-31T07:44:32.267Z,14.42
2017-12-31T07:45:12.818Z,14.37
2017-12-31T07:45:53.341Z,14.43
2017-12-31T07:46:33.903Z,14.43
2017-12-31T07:47:14.444Z,14.47
2017-12-31T07:47:55.013Z,14.42
2017-12-31T07:48:35.553Z,14.37
2017-12-31T07:49:16.132Z,14.36
2017-12-31T07:49:56.710Z,14.43
2017-12-31T07:50:37.262Z,14.52
2017-12-31T07:51:17.812Z,14.5
2017-12-31T07:51:58.349Z,14.47
2017-12-31T07:52:38.899Z,14.51
2017-12-31T07:53:19.442Z,14.47
2017-12-31T07:53:59.975Z,14.5
2017-12-31T07:54:40.547Z,14.52
2017-12-31T07:55:21.163Z,14.47
2017-12-31T07:56:01.730Z,14.45
2017-12-31T07:56:42.286Z,14.54
2017-12-31T07:57:22.843Z,14.54
2017-12-31T07:58:04.045Z,14.54
2017-12-31T07:58:44.601Z,14.5
2017-12-31T07:59:25.152Z,14.51
2017-12-31T08:00:05.715Z,14.54
2017-12-31T08:00:46.249Z,14.35
2017-12-31T08:01:26.845Z,14.47
2017-12-31T08:02:07.419Z,14.5
2017-12-31T08:02:47.959Z,14.5
2017-12-31T08:03:28.525Z,14.52
2017-12-31T08:04:09.127Z,14.5
2017-12-31T08:04:49.652Z,14.47
2017-12-31T08:05:30.713Z,14.47
2017-12-31T08:06:11.242Z,14.6
2017-12-31T08:06:51.781Z,14.55
2017-12-31T08:07:32.344Z,14.68
2017-12-31T08:08:12.887Z,14.64
2017-12-31T08:08:53.428Z,14.55
2017-12-31T08:09:33.976Z,14.72
2017-12-31T08:10:14.499Z,14.68
2017-12-31T08:10:55.038Z,14.6
2017-12-31T08:11:35.577Z,14.6
2017-12-31T08:12:16.119Z,14.58
2017-12-31T08:12:56.646Z,14.61
2017-12-31T08:13:37.189Z,14.64
2017-12-31T08:14:17.723Z,14.68
2017-12-31T08:14:58.277Z,14.69
2017-12-31T08:15:38.835Z,14.75
2017-12-31T08:16:19.410Z,14.7
2017-12-31T08:16:59.963Z,14.77
2017-12-31T08:17:40.503Z,14.75
2017-12-31T08:18:21.090Z,14.8
2017-12-31T08:19:01.674Z,14.81
2017-12-31T08:19:42.229Z,14.78
2017-12-31T08:20:22.785Z,14.83
2017-12-31T08:21:03.357Z,14.78
2017-12-31T08:21:43.911Z,14.73
2017-12-31T08:22:24.977Z,14.8
2017-12-31T08:23:05.557Z,14.77
2017-12-31T08:23:46.126Z,14.77
2017-12-31T08:24:26.675Z,14.88
2017-12-31T08:25:07.219Z,14.8
2017-12-31T08:25:47.745Z,14.91
2017-12-31T08:26:28.284Z,14.89
2017-12-31T08:27:08.824Z,14.91
2017-12-31T08:27:49.375Z,14.88
2017-12-31T08:28:29.949Z,14.89
2017-12-31T08:29:10.931Z,14.89
2017-12-31T08:29:51.473Z,14.95
2017-12-31T08:30:32.028Z,14.88
2017-12-31T08:31:12.590Z,14.99
2017-12-31T08:31:53.150Z,14.98
2017-12-31T08:32:33.694Z,15.02
2017-12-31T08:33:14.219Z,15.01
2017-12-31T08:33:54.749Z,15.01
2017-12-31T08:34:35.316Z,14.88
2017-12-31T08:35:15.839Z,14.92
2017-12-31T08:35:56.380Z,14.88
2017-12-31T08:36:36.924Z,14.89
2017-12-31T08:37:17.476Z,14.92
2017-12-31T08:37:58.055Z,14.96
2017-12-31T08:38:38.618Z,14.92
2017-12-31T08:39:19.190Z,15.01
2017-12-31T08:39:59.771Z,15.06
2017-12-31T08:40:40.336Z,15.02
2017-12-31T08:41:20.879Z,15.06
2017-12-31T08:42:01.421Z,14.92
2017-12-31T08:42:42.059Z,14.81
2017-12-31T08:43:22.551Z,14.92
2017-12-31T08:44:03.087Z,14.92